Bao An Cheng 69 — BVBD5 — position and weather

sailwx.info

Track history (hours):
 
Tides and Currents Weather Stations Pressure Air Temp Water Temp Dewpoint Dewpoint Depression Visibility Wind Speed Wind Dir Waves Ship Positions

Bao An Cheng 69

Last reported at 2016-Jul-01 15:16 UTC. Time now 2016-Jul-01 19:07 UTC.
Position N 23°56' E 118°00'.

Length 121 m; draft 6.4 m.

Type: Cargo ship. MMSI: 412703090.

Date/timePositionNaut miles runAvg speedWind from/ knotsBaromVisibWave heightAir tempDewpointWater temp
2016-Jul-01 15:16N 23°56' E 118°00'41 8.2
2016-Jul-01 10:16N 24°24' E 118°33'5 6.7
2016-Jul-01 09:30N 24°28' E 118°37'7 6.9
2016-Jul-01 08:32N 24°32' E 118°42'6 6.6
2016-Jul-01 07:33N 24°38' E 118°45'7 7.3
2016-Jul-01 06:33N 24°45' E 118°48'2 1.8
2016-Jul-01 05:31N 24°47' E 118°48'0 0.1
2016-Jul-01 04:19N 24°47' E 118°48'0 0.0
2016-Jul-01 00:19N 24°47' E 118°48'0 0.5
2016-Jun-30 23:29N 24°47' E 118°48'0 0.0
2016-Jun-30 22:23N 24°47' E 118°48'0 0.0
2016-Jun-30 21:23N 24°47' E 118°48'0 0.3
2016-Jun-30 20:33N 24°47' E 118°48'4 4.3
2016-Jun-30 19:33N 24°49' E 118°43'0 0.0
2016-Jun-30 18:32N 24°49' E 118°43'0 0.0
2016-Jun-30 17:20N 24°49' E 118°43'0 0.0
2016-Jun-30 16:26N 24°49' E 118°43'0 0.0
2016-Jun-30 15:32N 24°49' E 118°43'0 0.0
2016-Jun-30 14:29N 24°49' E 118°43'0 0.0
2016-Jun-30 13:29N 24°49' E 118°43'0 0.0
2016-Jun-30 12:29N 24°49' E 118°43'0 0.1
2016-Jun-30 11:32N 24°49' E 118°43'0 0.1
2016-Jun-30 10:32N 24°49' E 118°43'0 0.3
2016-Jun-30 09:33N 24°49' E 118°43'5 3.7
2016-Jun-30 08:19N 24°48' E 118°48'0 0.0
2016-Jun-30 06:22N 24°48' E 118°48'7 9.2
2016-Jun-30 05:33N 24°41' E 118°47'1110.7
2016-Jun-30 04:33N 24°31' E 118°41'1010.2
2016-Jun-30 03:33N 24°24' E 118°33'9 9.3
2016-Jun-30 02:32N 24°17' E 118°26'9 8.7
2016-Jun-30 01:33N 24°10' E 118°20'9 8.7
2016-Jun-30 00:34N 24°05' E 118°13'11 8.9
2016-Jun-29 23:20N 23°58' E 118°03'17 9.5
2016-Jun-29 21:33N 23°48' E 117°49'1010.2
2016-Jun-29 20:34N 23°41' E 117°40'1110.6
2016-Jun-29 19:32N 23°35' E 117°31'37 9.3
2016-Jun-29 15:33N 23°18' E 116°55'8 7.9
2016-Jun-29 14:33N 23°18' E 116°47'4 3.0
2016-Jun-29 13:22N 23°21' E 116°44'0 0.0
2016-Jun-29 12:28N 23°21' E 116°44'0 0.0
2016-Jun-29 11:28N 23°21' E 116°44'0 0.0
2016-Jun-29 10:28N 23°21' E 116°44'0 0.0
2016-Jun-29 09:28N 23°21' E 116°44'0 0.0
2016-Jun-29 08:28N 23°21' E 116°44'0 0.0
2016-Jun-29 07:28N 23°21' E 116°44'0 0.0
2016-Jun-29 06:22N 23°21' E 116°44'0 0.0
2016-Jun-29 05:28N 23°21' E 116°44'0 0.0
2016-Jun-29 04:22N 23°21' E 116°44'0 0.0
2016-Jun-29 03:28N 23°21' E 116°44'0 0.0
2016-Jun-29 02:28N 23°21' E 116°44'0 0.0
2016-Jun-29 01:28N 23°21' E 116°44'0 0.0
2016-Jun-29 00:22N 23°21' E 116°44'0 0.0
2016-Jun-28 21:22N 23°21' E 116°44'0 0.0
2016-Jun-28 20:28N 23°21' E 116°44'0 0.0
2016-Jun-28 19:28N 23°21' E 116°44'0 0.0
2016-Jun-28 18:28N 23°21' E 116°44'0 0.0
2016-Jun-28 17:22N 23°21' E 116°44'0 0.0
2016-Jun-28 16:20N 23°21' E 116°44'0 0.0
2016-Jun-28 15:26N 23°21' E 116°44'0 0.0
2016-Jun-28 14:32N 23°21' E 116°44'0 0.0
2016-Jun-28 13:30N 23°21' E 116°44'0 0.0
2016-Jun-28 12:30N 23°21' E 116°44'0 0.0
2016-Jun-28 11:24N 23°21' E 116°44'0 0.0
2016-Jun-28 10:30N 23°21' E 116°44'0 0.0
2016-Jun-28 09:30N 23°21' E 116°44'0 0.0
2016-Jun-28 08:24N 23°21' E 116°44'0 0.0
2016-Jun-28 07:34N 23°21' E 116°44'0 0.0
2016-Jun-28 06:28N 23°21' E 116°44'0 0.0
2016-Jun-28 04:33N 23°21' E 116°44'3 3.4
2016-Jun-28 03:33N 23°18' E 116°46'6 5.7
2016-Jun-28 02:33N 23°17' E 116°52'37 8.7
2016-Jun-27 22:15N 23°34' E 117°29'5 7.3
2016-Jun-27 21:33N 23°37' E 117°33'7 7.4
2016-Jun-27 20:33N 23°41' E 117°39'8 7.3
2016-Jun-27 19:32N 23°46' E 117°46'8 7.4
2016-Jun-27 18:24N 23°50' E 117°54'7 7.4
2016-Jun-27 17:31N 23°55' E 117°59'9 7.6
2016-Jun-27 16:22N 24°00' E 118°06'7 8.1
2016-Jun-27 15:32N 24°04' E 118°12'8 8.2
2016-Jun-27 14:33N 24°09' E 118°19'45 7.4
2016-Jun-27 08:27N 24°49' E 118°43'0 0.1
2016-Jun-27 07:23N 24°49' E 118°43'0 0.0
2016-Jun-27 06:29N 24°49' E 118°43'0 0.0
2016-Jun-27 03:08N 24°49' E 118°43'0 0.0
2016-Jun-27 00:25N 24°49' E 118°43'0 0.0
2016-Jun-26 23:31N 24°49' E 118°43'0 0.0
2016-Jun-26 22:19N 24°49' E 118°43'0 0.0
2016-Jun-26 20:25N 24°49' E 118°43'0 0.1
2016-Jun-26 19:31N 24°49' E 118°43'23 7.8
2016-Jun-26 16:32N 24°27' E 118°36'1210.8
2016-Jun-26 15:24N 24°18' E 118°27'1010.5
2016-Jun-26 14:25N 24°10' E 118°20'28 9.8
2016-Jun-26 11:33N 23°52' E 117°56'9 8.7
2016-Jun-26 10:33N 23°47' E 117°48'9 8.7
2016-Jun-26 09:33N 23°42' E 117°41'9 9.2
2016-Jun-26 08:32N 23°36' E 117°33'4110.1
2016-Jun-26 04:32N 23°18' E 116°53'8 7.7
2016-Jun-26 03:33N 23°19' E 116°45'2 2.2
2016-Jun-26 02:31N 23°21' E 116°43'0 0.0
2016-Jun-26 01:31N 23°21' E 116°43'0 0.0
2016-Jun-26 00:31N 23°21' E 116°43'0 0.0
2016-Jun-25 23:19N 23°21' E 116°43'0 0.0
2016-Jun-25 22:31N 23°21' E 116°43'0 0.0
2016-Jun-25 21:31N 23°21' E 116°43'0 0.0
2016-Jun-25 20:25N 23°21' E 116°43'0 0.0
2016-Jun-25 19:31N 23°21' E 116°43'0 0.0
2016-Jun-25 18:31N 23°21' E 116°43'0 0.0
2016-Jun-25 17:31N 23°21' E 116°43'0 0.0
2016-Jun-25 16:31N 23°21' E 116°43'0 0.0
2016-Jun-25 15:31N 23°21' E 116°43'0 0.0
2016-Jun-25 14:31N 23°21' E 116°43'0 0.0
2016-Jun-25 13:31N 23°21' E 116°43'0 0.0
2016-Jun-25 12:31N 23°21' E 116°43'0 0.0
2016-Jun-25 11:31N 23°21' E 116°43'0 0.0
2016-Jun-25 10:19N 23°21' E 116°43'0 0.0
2016-Jun-25 09:31N 23°21' E 116°43'0 0.0
2016-Jun-25 08:31N 23°21' E 116°43'0 0.0
2016-Jun-25 07:32N 23°21' E 116°43'0 0.0
2016-Jun-25 06:26N 23°21' E 116°43'0 0.0
2016-Jun-25 05:26N 23°21' E 116°43'0 0.0
2016-Jun-25 04:32N 23°21' E 116°43'0 0.0
2016-Jun-25 03:32N 23°21' E 116°43'0 0.0
2016-Jun-25 02:32N 23°21' E 116°43'0 0.0
2016-Jun-25 01:26N 23°21' E 116°43'2 1.7
2016-Jun-25 00:33N 23°20' E 116°45'7 7.1
2016-Jun-24 23:33N 23°16' E 116°51'62 8.5
2016-Jun-24 16:19N 23°48' E 117°49'6 7.5
2016-Jun-24 15:32N 23°51' E 117°54'33 7.7
2016-Jun-24 11:13N 24°13' E 118°22'5 8.3
2016-Jun-24 10:33N 24°17' E 118°26'10 8.4
2016-Jun-24 09:22N 24°24' E 118°34'27 2.1
2016-Jun-23 20:18N 24°49' E 118°44'0 0.0
2016-Jun-23 18:30N 24°49' E 118°44'13 5.9
2016-Jun-23 16:22N 24°36' E 118°44'910.2
2016-Jun-23 15:29N 24°29' E 118°38'5610.9
2016-Jun-23 10:25N 23°51' E 117°54'8 9.5
2016-Jun-23 09:33N 23°46' E 117°47'9 8.7
2016-Jun-23 08:33N 23°41' E 117°39'9 8.9
2016-Jun-23 07:32N 23°35' E 117°31'4110.2
2016-Jun-23 03:33N 23°17' E 116°52'8 8.1
2016-Jun-23 02:33N 23°20' E 116°44'1 0.7
2016-Jun-23 01:29N 23°21' E 116°44'0 0.0
2016-Jun-23 00:33N 23°21' E 116°44'0 0.0
2016-Jun-22 23:27N 23°21' E 116°44'0 0.0
2016-Jun-22 22:21N 23°21' E 116°44'0 0.0
2016-Jun-22 21:27N 23°21' E 116°44'0 0.0
2016-Jun-22 20:21N 23°21' E 116°44'0 0.0
2016-Jun-22 19:33N 23°21' E 116°44'0 0.0
2016-Jun-22 18:33N 23°21' E 116°44'0 0.0
2016-Jun-22 17:27N 23°21' E 116°44'0 0.0
2016-Jun-22 16:33N 23°21' E 116°44'0 0.0
2016-Jun-22 15:33N 23°21' E 116°44'0 0.0
2016-Jun-22 14:33N 23°21' E 116°44'0 0.0
2016-Jun-22 13:33N 23°21' E 116°44'0 0.0
2016-Jun-22 12:33N 23°21' E 116°44'0 0.0
2016-Jun-22 11:33N 23°21' E 116°44'0 0.0
2016-Jun-22 10:21N 23°21' E 116°44'1 0.7
2016-Jun-22 09:33N 23°21' E 116°44'7 7.3
2016-Jun-22 08:33N 23°16' E 116°50'42 8.4
2016-Jun-22 03:32N 23°35' E 117°31'8 7.3
2016-Jun-22 02:29N 23°40' E 117°38'7 7.5
2016-Jun-22 01:31N 23°44' E 117°44'18 8.1
2016-Jun-21 23:21N 23°55' E 117°59'10 8.6
2016-Jun-21 22:11N 24°01' E 118°08'6 9.0
2016-Jun-21 21:31N 24°05' E 118°13'9 9.0
2016-Jun-21 20:32N 24°11' E 118°21'18 9.3
2016-Jun-21 18:32N 24°25' E 118°34'11 9.0
2016-Jun-21 17:17N 24°33' E 118°42'7 9.2
2016-Jun-21 16:32N 24°39' E 118°46'9 8.2
2016-Jun-21 15:30N 24°48' E 118°47'  
Track history (hours):
 
Tides and Currents Weather Stations Pressure Air Temp Water Temp Dewpoint Dewpoint Depression Visibility Wind Speed Wind Dir Waves Ship Positions

Bao An Cheng 69

Last reported at 2016-Jul-01 15:16 UTC. Time now 2016-Jul-01 19:08 UTC.
Position N 23°56' E 118°00'.

Length 121 m; draft 6.4 m.

Type: Cargo ship. MMSI: 412703090.

Date/timePositionNaut miles runAvg speedWind from/ knotsBaromVisibWave heightAir tempDewpointWater temp
2016-Jul-01 15:16N 23°56' E 118°00'41 8.2
2016-Jul-01 10:16N 24°24' E 118°33'5 6.7
2016-Jul-01 09:30N 24°28' E 118°37'7 6.9
2016-Jul-01 08:32N 24°32' E 118°42'6 6.6
2016-Jul-01 07:33N 24°38' E 118°45'7 7.3
2016-Jul-01 06:33N 24°45' E 118°48'2 1.8
2016-Jul-01 05:31N 24°47' E 118°48'0 0.1
2016-Jul-01 04:19N 24°47' E 118°48'0 0.0
2016-Jul-01 00:19N 24°47' E 118°48'0 0.5
2016-Jun-30 23:29N 24°47' E 118°48'0 0.0
2016-Jun-30 22:23N 24°47' E 118°48'0 0.0
2016-Jun-30 21:23N 24°47' E 118°48'0 0.3
2016-Jun-30 20:33N 24°47' E 118°48'4 4.3
2016-Jun-30 19:33N 24°49' E 118°43'0 0.0
2016-Jun-30 18:32N 24°49' E 118°43'0 0.0
2016-Jun-30 17:20N 24°49' E 118°43'0 0.0
2016-Jun-30 16:26N 24°49' E 118°43'0 0.0
2016-Jun-30 15:32N 24°49' E 118°43'0 0.0
2016-Jun-30 14:29N 24°49' E 118°43'0 0.0
2016-Jun-30 13:29N 24°49' E 118°43'0 0.0
2016-Jun-30 12:29N 24°49' E 118°43'0 0.1
2016-Jun-30 11:32N 24°49' E 118°43'0 0.1
2016-Jun-30 10:32N 24°49' E 118°43'0 0.3
2016-Jun-30 09:33N 24°49' E 118°43'5 3.7
2016-Jun-30 08:19N 24°48' E 118°48'0 0.0
2016-Jun-30 06:22N 24°48' E 118°48'7 9.2
2016-Jun-30 05:33N 24°41' E 118°47'1110.7
2016-Jun-30 04:33N 24°31' E 118°41'1010.2
2016-Jun-30 03:33N 24°24' E 118°33'9 9.3
2016-Jun-30 02:32N 24°17' E 118°26'9 8.7
2016-Jun-30 01:33N 24°10' E 118°20'9 8.7
2016-Jun-30 00:34N 24°05' E 118°13'11 8.9
2016-Jun-29 23:20N 23°58' E 118°03'17 9.5
2016-Jun-29 21:33N 23°48' E 117°49'1010.2
2016-Jun-29 20:34N 23°41' E 117°40'1110.6
2016-Jun-29 19:32N 23°35' E 117°31'37 9.3
2016-Jun-29 15:33N 23°18' E 116°55'8 7.9
2016-Jun-29 14:33N 23°18' E 116°47'4 3.0
2016-Jun-29 13:22N 23°21' E 116°44'0 0.0
2016-Jun-29 12:28N 23°21' E 116°44'0 0.0
2016-Jun-29 11:28N 23°21' E 116°44'0 0.0
2016-Jun-29 10:28N 23°21' E 116°44'0 0.0
2016-Jun-29 09:28N 23°21' E 116°44'0 0.0
2016-Jun-29 08:28N 23°21' E 116°44'0 0.0
2016-Jun-29 07:28N 23°21' E 116°44'0 0.0
2016-Jun-29 06:22N 23°21' E 116°44'0 0.0
2016-Jun-29 05:28N 23°21' E 116°44'0 0.0
2016-Jun-29 04:22N 23°21' E 116°44'0 0.0
2016-Jun-29 03:28N 23°21' E 116°44'0 0.0
2016-Jun-29 02:28N 23°21' E 116°44'0 0.0
2016-Jun-29 01:28N 23°21' E 116°44'0 0.0
2016-Jun-29 00:22N 23°21' E 116°44'0 0.0
2016-Jun-28 21:22N 23°21' E 116°44'0 0.0
2016-Jun-28 20:28N 23°21' E 116°44'0 0.0
2016-Jun-28 19:28N 23°21' E 116°44'0 0.0
2016-Jun-28 18:28N 23°21' E 116°44'0 0.0
2016-Jun-28 17:22N 23°21' E 116°44'0 0.0
2016-Jun-28 16:20N 23°21' E 116°44'0 0.0
2016-Jun-28 15:26N 23°21' E 116°44'0 0.0
2016-Jun-28 14:32N 23°21' E 116°44'0 0.0
2016-Jun-28 13:30N 23°21' E 116°44'0 0.0
2016-Jun-28 12:30N 23°21' E 116°44'0 0.0
2016-Jun-28 11:24N 23°21' E 116°44'0 0.0
2016-Jun-28 10:30N 23°21' E 116°44'0 0.0
2016-Jun-28 09:30N 23°21' E 116°44'0 0.0
2016-Jun-28 08:24N 23°21' E 116°44'0 0.0
2016-Jun-28 07:34N 23°21' E 116°44'0 0.0
2016-Jun-28 06:28N 23°21' E 116°44'0 0.0
2016-Jun-28 04:33N 23°21' E 116°44'3 3.4
2016-Jun-28 03:33N 23°18' E 116°46'6 5.7
2016-Jun-28 02:33N 23°17' E 116°52'37 8.7
2016-Jun-27 22:15N 23°34' E 117°29'5 7.3
2016-Jun-27 21:33N 23°37' E 117°33'7 7.4
2016-Jun-27 20:33N 23°41' E 117°39'8 7.3
2016-Jun-27 19:32N 23°46' E 117°46'8 7.4
2016-Jun-27 18:24N 23°50' E 117°54'7 7.4
2016-Jun-27 17:31N 23°55' E 117°59'9 7.6
2016-Jun-27 16:22N 24°00' E 118°06'7 8.1
2016-Jun-27 15:32N 24°04' E 118°12'8 8.2
2016-Jun-27 14:33N 24°09' E 118°19'45 7.4
2016-Jun-27 08:27N 24°49' E 118°43'0 0.1
2016-Jun-27 07:23N 24°49' E 118°43'0 0.0
2016-Jun-27 06:29N 24°49' E 118°43'0 0.0
2016-Jun-27 03:08N 24°49' E 118°43'0 0.0
2016-Jun-27 00:25N 24°49' E 118°43'0 0.0
2016-Jun-26 23:31N 24°49' E 118°43'0 0.0
2016-Jun-26 22:19N 24°49' E 118°43'0 0.0
2016-Jun-26 20:25N 24°49' E 118°43'0 0.1
2016-Jun-26 19:31N 24°49' E 118°43'23 7.8
2016-Jun-26 16:32N 24°27' E 118°36'1210.8
2016-Jun-26 15:24N 24°18' E 118°27'1010.5
2016-Jun-26 14:25N 24°10' E 118°20'28 9.8
2016-Jun-26 11:33N 23°52' E 117°56'9 8.7
2016-Jun-26 10:33N 23°47' E 117°48'9 8.7
2016-Jun-26 09:33N 23°42' E 117°41'9 9.2
2016-Jun-26 08:32N 23°36' E 117°33'4110.1
2016-Jun-26 04:32N 23°18' E 116°53'8 7.7
2016-Jun-26 03:33N 23°19' E 116°45'2 2.2
2016-Jun-26 02:31N 23°21' E 116°43'0 0.0
2016-Jun-26 01:31N 23°21' E 116°43'0 0.0
2016-Jun-26 00:31N 23°21' E 116°43'0 0.0
2016-Jun-25 23:19N 23°21' E 116°43'0 0.0
2016-Jun-25 22:31N 23°21' E 116°43'0 0.0
2016-Jun-25 21:31N 23°21' E 116°43'0 0.0
2016-Jun-25 20:25N 23°21' E 116°43'0 0.0
2016-Jun-25 19:31N 23°21' E 116°43'0 0.0
2016-Jun-25 18:31N 23°21' E 116°43'0 0.0
2016-Jun-25 17:31N 23°21' E 116°43'0 0.0
2016-Jun-25 16:31N 23°21' E 116°43'0 0.0
2016-Jun-25 15:31N 23°21' E 116°43'0 0.0
2016-Jun-25 14:31N 23°21' E 116°43'0 0.0
2016-Jun-25 13:31N 23°21' E 116°43'0 0.0
2016-Jun-25 12:31N 23°21' E 116°43'0 0.0
2016-Jun-25 11:31N 23°21' E 116°43'0 0.0
2016-Jun-25 10:19N 23°21' E 116°43'0 0.0
2016-Jun-25 09:31N 23°21' E 116°43'0 0.0
2016-Jun-25 08:31N 23°21' E 116°43'0 0.0
2016-Jun-25 07:32N 23°21' E 116°43'0 0.0
2016-Jun-25 06:26N 23°21' E 116°43'0 0.0
2016-Jun-25 05:26N 23°21' E 116°43'0 0.0
2016-Jun-25 04:32N 23°21' E 116°43'0 0.0
2016-Jun-25 03:32N 23°21' E 116°43'0 0.0
2016-Jun-25 02:32N 23°21' E 116°43'0 0.0
2016-Jun-25 01:26N 23°21' E 116°43'2 1.7
2016-Jun-25 00:33N 23°20' E 116°45'7 7.1
2016-Jun-24 23:33N 23°16' E 116°51'62 8.5
2016-Jun-24 16:19N 23°48' E 117°49'6 7.5
2016-Jun-24 15:32N 23°51' E 117°54'33 7.7
2016-Jun-24 11:13N 24°13' E 118°22'5 8.3
2016-Jun-24 10:33N 24°17' E 118°26'10 8.4
2016-Jun-24 09:22N 24°24' E 118°34'27 2.1
2016-Jun-23 20:18N 24°49' E 118°44'0 0.0
2016-Jun-23 18:30N 24°49' E 118°44'13 5.9
2016-Jun-23 16:22N 24°36' E 118°44'910.2
2016-Jun-23 15:29N 24°29' E 118°38'5610.9
2016-Jun-23 10:25N 23°51' E 117°54'8 9.5
2016-Jun-23 09:33N 23°46' E 117°47'9 8.7
2016-Jun-23 08:33N 23°41' E 117°39'9 8.9
2016-Jun-23 07:32N 23°35' E 117°31'4110.2
2016-Jun-23 03:33N 23°17' E 116°52'8 8.1
2016-Jun-23 02:33N 23°20' E 116°44'1 0.7
2016-Jun-23 01:29N 23°21' E 116°44'0 0.0
2016-Jun-23 00:33N 23°21' E 116°44'0 0.0
2016-Jun-22 23:27N 23°21' E 116°44'0 0.0
2016-Jun-22 22:21N 23°21' E 116°44'0 0.0
2016-Jun-22 21:27N 23°21' E 116°44'0 0.0
2016-Jun-22 20:21N 23°21' E 116°44'0 0.0
2016-Jun-22 19:33N 23°21' E 116°44'0 0.0
2016-Jun-22 18:33N 23°21' E 116°44'0 0.0
2016-Jun-22 17:27N 23°21' E 116°44'0 0.0
2016-Jun-22 16:33N 23°21' E 116°44'0 0.0
2016-Jun-22 15:33N 23°21' E 116°44'0 0.0
2016-Jun-22 14:33N 23°21' E 116°44'0 0.0
2016-Jun-22 13:33N 23°21' E 116°44'0 0.0
2016-Jun-22 12:33N 23°21' E 116°44'0 0.0
2016-Jun-22 11:33N 23°21' E 116°44'0 0.0
2016-Jun-22 10:21N 23°21' E 116°44'1 0.7
2016-Jun-22 09:33N 23°21' E 116°44'7 7.3
2016-Jun-22 08:33N 23°16' E 116°50'42 8.4
2016-Jun-22 03:32N 23°35' E 117°31'8 7.3
2016-Jun-22 02:29N 23°40' E 117°38'7 7.5
2016-Jun-22 01:31N 23°44' E 117°44'18 8.1
2016-Jun-21 23:21N 23°55' E 117°59'10 8.6
2016-Jun-21 22:11N 24°01' E 118°08'6 9.0
2016-Jun-21 21:31N 24°05' E 118°13'9 9.0
2016-Jun-21 20:32N 24°11' E 118°21'18 9.3
2016-Jun-21 18:32N 24°25' E 118°34'11 9.0
2016-Jun-21 17:17N 24°33' E 118°42'7 9.2
2016-Jun-21 16:32N 24°39' E 118°46'9 8.2
2016-Jun-21 15:30N 24°48' E 118°47'  

Dump ship's entire track history